Time;durP1;ratioP1;P1;durP2;ratioP2;P2;SDS_P1;SDS_P2;PMS_P1;PMS_P2;Temp;Humidity;BMP_temperature;BMP_pressure;BME280_temperature;BME280_humidity;BME280_pressure;Samples;Min_cycle;Max_cycle;Signal;HPM_P1;HPM_P2
2021/12/07 00:00:31;;;;;;;18.63;9.07;;;1.40;99.90;;;;;;4975765;28;20112;-87
2021/12/07 00:02:57;;;;;;;16.73;9.00;;;1.40;99.90;;;;;;4996363;28;20042;-87
2021/12/07 00:05:22;;;;;;;17.60;9.63;;;1.40;99.90;;;;;;4967408;28;20153;-87
2021/12/07 00:07:48;;;;;;;17.00;8.82;;;1.40;99.90;;;;;;4997874;28;20507;-87
2021/12/07 00:10:16;;;;;;;14.93;8.23;;;1.40;99.90;;;;;;4982882;28;20041;-87
2021/12/07 00:12:44;;;;;;;15.73;8.27;;;1.40;99.90;;;;;;4978193;28;20124;-87
2021/12/07 00:15:13;;;;;;;16.20;8.50;;;1.40;99.90;;;;;;4979411;28;20029;-86
2021/12/07 00:17:40;;;;;;;16.23;7.80;;;1.40;99.90;;;;;;4978702;28;20433;-87
2021/12/07 00:20:10;;;;;;;16.58;8.63;;;1.40;99.90;;;;;;4977605;28;20069;-87
2021/12/07 00:22:36;;;;;;;16.67;8.85;;;1.40;99.90;;;;;;4982239;28;20339;-88
2021/12/07 00:25:02;;;;;;;15.77;7.57;;;1.40;99.90;;;;;;4979547;28;20038;-87
2021/12/07 00:27:28;;;;;;;15.00;7.72;;;1.40;99.90;;;;;;4981442;28;20052;-86
2021/12/07 00:29:54;;;;;;;14.77;7.03;;;1.40;99.90;;;;;;4980021;28;20503;-87
2021/12/07 00:37:26;;;;;;;10.93;5.38;;;1.40;99.90;;;;;;5000037;28;20048;-86
2021/12/07 00:39:53;;;;;;;12.60;6.75;;;1.30;99.90;;;;;;4976497;28;20037;-86
2021/12/07 00:42:19;;;;;;;14.38;7.07;;;1.30;99.90;;;;;;4977481;28;20043;-87
2021/12/07 00:44:45;;;;;;;12.57;6.13;;;1.30;99.90;;;;;;4978117;28;20041;-87
2021/12/07 00:47:10;;;;;;;11.32;5.68;;;1.30;99.90;;;;;;4981180;28;20061;-87
2021/12/07 00:49:36;;;;;;;13.18;6.03;;;1.30;99.90;;;;;;4977765;28;20482;-87
2021/12/07 00:52:03;;;;;;;10.63;5.85;;;1.30;99.90;;;;;;4975863;28;20034;-86
2021/12/07 00:54:29;;;;;;;13.40;6.97;;;1.30;99.90;;;;;;4983042;28;20045;-86
2021/12/07 00:56:55;;;;;;;12.93;6.70;;;1.30;99.90;;;;;;4982676;28;20033;-86
2021/12/07 00:59:20;;;;;;;11.35;5.78;;;1.30;99.90;;;;;;4978672;28;20050;-86
2021/12/07 01:01:46;;;;;;;12.35;6.15;;;1.30;99.90;;;;;;4988659;28;20514;-86
2021/12/07 01:04:12;;;;;;;12.63;6.40;;;1.30;99.90;;;;;;4976590;28;20050;-86
2021/12/07 01:07:03;;;;;;;10.75;5.57;;;1.30;99.90;;;;;;4981531;28;20052;-87
2021/12/07 01:24:38;;;;;;;10.85;5.57;;;1.30;99.90;;;;;;4982739;28;20483;-87
2021/12/07 01:26:09;;;;;;;9.85;5.32;;;1.40;99.90;;;;;;4959146;28;20045;-86
2021/12/07 01:28:40;;;;;;;10.95;6.22;;;1.40;99.90;;;;;;4979236;28;20038;-86
2021/12/07 01:31:17;;;;;;;11.30;6.00;;;1.40;99.90;;;;;;4974153;28;20030;-86
2021/12/07 01:47:26;;;;;;;10.85;5.53;;;1.30;99.90;;;;;;5017103;28;20038;-86
2021/12/07 02:00:33;;;;;;;11.32;5.60;;;1.30;99.90;;;;;;4996294;28;20041;-83
2021/12/07 02:02:59;;;;;;;10.05;5.28;;;1.30;99.90;;;;;;5021215;23;20403;-84
2021/12/07 02:05:25;;;;;;;9.20;5.15;;;1.40;99.90;;;;;;5022577;28;20514;-83
2021/12/07 02:07:51;;;;;;;9.13;4.82;;;1.40;99.90;;;;;;5020561;28;20040;-84
2021/12/07 02:10:21;;;;;;;12.43;6.00;;;1.40;99.90;;;;;;5020256;28;20042;-84
2021/12/07 02:12:49;;;;;;;10.55;5.30;;;1.40;99.90;;;;;;4993147;28;20040;-84
2021/12/07 02:15:20;;;;;;;11.45;6.05;;;1.40;99.90;;;;;;5008602;28;20038;-84
2021/12/07 02:17:47;;;;;;;9.05;4.93;;;1.50;99.90;;;;;;5019674;28;20038;-84
2021/12/07 02:20:14;;;;;;;11.43;5.30;;;1.50;99.90;;;;;;5019024;28;20037;-84
2021/12/07 02:22:40;;;;;;;7.07;4.00;;;1.50;99.90;;;;;;5019751;28;20049;-84
2021/12/07 02:25:09;;;;;;;9.70;4.82;;;1.60;99.90;;;;;;5024694;28;20042;-84
2021/12/07 02:27:35;;;;;;;9.75;5.35;;;1.60;99.90;;;;;;5020350;28;20525;-83
2021/12/07 02:30:01;;;;;;;6.68;3.90;;;1.60;99.90;;;;;;5022462;28;20038;-84
2021/12/07 02:32:26;;;;;;;8.48;4.70;;;1.60;99.90;;;;;;5029803;28;20112;-84
2021/12/07 02:34:59;;;;;;;8.77;4.32;;;1.60;99.90;;;;;;5003681;28;20192;-84
2021/12/07 02:37:29;;;;;;;8.77;5.25;;;1.60;99.90;;;;;;5003259;28;20392;-84
2021/12/07 02:39:56;;;;;;;9.55;4.85;;;1.60;99.90;;;;;;5026297;28;20053;-84
2021/12/07 02:42:22;;;;;;;11.00;5.40;;;1.60;99.90;;;;;;5023864;28;20552;-84
2021/12/07 02:44:48;;;;;;;9.07;4.63;;;1.60;99.90;;;;;;5004117;28;20042;-84
2021/12/07 02:47:14;;;;;;;9.73;5.05;;;1.50;99.90;;;;;;5016606;28;20064;-84
2021/12/07 02:49:40;;;;;;;7.50;3.88;;;1.50;99.90;;;;;;5016794;28;20041;-84
2021/12/07 02:52:06;;;;;;;10.23;4.35;;;1.50;99.90;;;;;;5023046;28;20500;-85
2021/12/07 02:54:34;;;;;;;10.00;5.53;;;1.50;99.90;;;;;;5019194;28;20506;-84
2021/12/07 02:57:00;;;;;;;9.15;4.88;;;1.50;99.90;;;;;;5020025;28;20040;-84
2021/12/07 02:59:27;;;;;;;8.82;5.05;;;1.50;99.90;;;;;;5002457;28;20042;-84
2021/12/07 03:02:02;;;;;;;8.95;5.07;;;1.50;99.90;;;;;;5023371;28;20125;-84
2021/12/07 03:04:35;;;;;;;10.43;5.25;;;1.40;99.90;;;;;;4993014;28;20778;-84
2021/12/07 03:10:12;;;;;;;9.43;5.07;;;1.40;99.90;;;;;;5012906;28;20037;-85
2021/12/07 03:26:15;;;;;;;8.90;4.88;;;1.30;99.90;;;;;;5011814;28;20474;-84
2021/12/07 03:28:52;;;;;;;9.93;4.93;;;1.30;99.90;;;;;;5011918;28;20056;-84
2021/12/07 03:31:19;;;;;;;10.95;5.20;;;1.30;99.90;;;;;;5017917;28;20041;-84
2021/12/07 03:33:45;;;;;;;10.15;4.82;;;1.30;99.90;;;;;;4993114;28;20034;-84
2021/12/07 03:36:12;;;;;;;10.52;5.15;;;1.20;99.90;;;;;;4991640;28;20413;-84
2021/12/07 03:38:39;;;;;;;12.27;6.30;;;1.30;99.90;;;;;;4987483;28;20476;-84
2021/12/07 03:41:05;;;;;;;11.75;5.60;;;1.20;99.90;;;;;;4994091;28;20069;-84
2021/12/07 03:43:32;;;;;;;11.88;6.15;;;1.20;99.90;;;;;;5010375;28;20045;-84
2021/12/07 03:45:58;;;;;;;12.07;5.78;;;1.20;99.90;;;;;;5004114;28;20044;-84
2021/12/07 03:48:24;;;;;;;11.38;5.95;;;1.20;99.90;;;;;;4994362;28;20281;-84
2021/12/07 03:50:50;;;;;;;9.25;4.82;;;1.20;99.90;;;;;;4994909;28;20530;-84
2021/12/07 03:53:16;;;;;;;11.23;6.10;;;1.20;99.90;;;;;;5009756;28;20537;-84
2021/12/07 03:55:42;;;;;;;12.75;5.88;;;1.20;99.90;;;;;;5012518;28;20048;-83
2021/12/07 03:58:08;;;;;;;13.88;6.47;;;1.20;99.90;;;;;;4996912;28;20376;-83
2021/12/07 04:00:37;;;;;;;12.27;5.45;;;1.20;99.90;;;;;;5006655;28;20482;-84
2021/12/07 04:03:07;;;;;;;9.88;5.85;;;1.20;99.90;;;;;;4993124;28;20394;-84
2021/12/07 04:05:36;;;;;;;12.15;5.60;;;1.20;99.90;;;;;;5010598;28;20081;-84
2021/12/07 04:08:03;;;;;;;14.68;6.82;;;1.20;99.90;;;;;;5010889;28;20397;-84
2021/12/07 04:10:30;;;;;;;11.07;5.97;;;1.20;99.90;;;;;;4993032;28;20046;-84
2021/12/07 04:12:56;;;;;;;11.77;5.35;;;1.20;99.90;;;;;;5018669;28;20041;-84
2021/12/07 04:15:21;;;;;;;10.98;5.93;;;1.10;99.90;;;;;;5009786;28;20060;-84
2021/12/07 04:17:47;;;;;;;12.32;6.03;;;1.10;99.90;;;;;;5009837;28;20517;-84
2021/12/07 04:20:15;;;;;;;11.10;5.45;;;1.10;99.90;;;;;;5026009;28;20486;-84
2021/12/07 04:22:41;;;;;;;10.73;5.82;;;1.10;99.90;;;;;;4985727;28;20042;-84
2021/12/07 04:25:11;;;;;;;13.40;5.15;;;1.00;99.90;;;;;;4992063;28;20398;-84
2021/12/07 04:27:39;;;;;;;12.40;5.50;;;1.00;99.90;;;;;;5007009;28;20041;-84
2021/12/07 04:30:15;;;;;;;12.77;5.57;;;1.00;99.90;;;;;;5014309;28;20067;-84
2021/12/07 04:32:42;;;;;;;11.88;6.03;;;1.10;99.90;;;;;;5008069;28;20423;-84
2021/12/07 04:35:09;;;;;;;12.48;5.95;;;1.10;99.90;;;;;;4999700;28;20034;-84
2021/12/07 04:37:34;;;;;;;9.98;5.10;;;1.10;99.90;;;;;;5006679;28;20041;-84
2021/12/07 04:40:00;;;;;;;11.82;5.28;;;1.20;99.90;;;;;;4994603;28;20041;-84
2021/12/07 04:42:26;;;;;;;12.25;5.28;;;1.20;99.90;;;;;;5007960;28;20482;-84
2021/12/07 04:44:56;;;;;;;11.98;5.35;;;1.30;99.90;;;;;;5000055;28;20499;-84
2021/12/07 04:47:32;;;;;;;9.18;4.22;;;1.30;99.90;;;;;;5007473;28;20049;-84
2021/12/07 04:50:22;;;;;;;9.43;4.88;;;1.30;99.90;;;;;;4997293;28;20428;-84
2021/12/07 04:58:08;;;;;;;11.77;5.40;;;1.30;99.90;;;;;;5013059;28;20044;-84
2021/12/07 05:00:34;;;;;;;11.80;5.32;;;1.20;99.90;;;;;;5010695;28;20037;-84
2021/12/07 05:03:04;;;;;;;7.60;3.80;;;1.20;99.90;;;;;;4988374;28;20057;-84
2021/12/07 05:05:35;;;;;;;7.70;3.58;;;1.10;99.90;;;;;;5008627;28;20049;-84
2021/12/07 05:08:05;;;;;;;10.18;5.45;;;1.10;99.90;;;;;;4987092;28;20040;-84
2021/12/07 05:10:39;;;;;;;9.15;3.97;;;1.10;99.90;;;;;;5006527;28;20034;-85
2021/12/07 05:15:57;;;;;;;11.45;5.18;;;1.10;99.90;;;;;;5005259;28;20053;-84
2021/12/07 05:18:36;;;;;;;7.75;3.95;;;1.10;99.90;;;;;;5002023;28;20052;-84
2021/12/07 05:24:02;;;;;;;13.25;5.50;;;1.10;99.90;;;;;;5004515;28;20053;-85
2021/12/07 05:40:02;;;;;;;14.15;5.00;;;1.20;99.90;;;;;;5011819;28;20045;-85
2021/12/07 05:42:28;;;;;;;14.75;5.13;;;1.10;99.90;;;;;;5010270;28;20407;-83
2021/12/07 05:44:55;;;;;;;15.80;5.38;;;1.10;99.90;;;;;;4990480;28;20042;-84
2021/12/07 05:47:22;;;;;;;15.25;4.93;;;1.00;99.90;;;;;;4992382;28;21624;-84
2021/12/07 05:49:48;;;;;;;11.48;5.13;;;1.00;99.90;;;;;;4990430;28;20044;-84
2021/12/07 05:52:14;;;;;;;12.25;5.80;;;1.00;99.90;;;;;;4994054;28;20053;-83
2021/12/07 05:54:39;;;;;;;12.68;5.15;;;1.00;99.90;;;;;;4994050;28;20034;-84
2021/12/07 05:57:06;;;;;;;10.32;5.05;;;1.00;99.90;;;;;;4986861;28;20449;-85
2021/12/07 05:59:32;;;;;;;11.45;5.80;;;0.90;99.90;;;;;;4996392;28;20033;-84
2021/12/07 06:01:57;;;;;;;14.15;6.10;;;0.90;99.90;;;;;;5009639;28;20034;-84
2021/12/07 06:04:23;;;;;;;14.68;6.20;;;0.90;99.90;;;;;;5005594;28;20050;-85
2021/12/07 06:06:49;;;;;;;13.73;4.93;;;0.90;99.90;;;;;;4982809;28;20125;-85
2021/12/07 06:09:14;;;;;;;15.50;5.65;;;0.80;99.90;;;;;;4992291;28;20049;-84
2021/12/07 06:11:42;;;;;;;17.35;6.43;;;0.80;99.90;;;;;;5010816;28;20065;-85
2021/12/07 06:14:09;;;;;;;13.10;5.22;;;0.80;99.90;;;;;;5000257;28;20164;-84
2021/12/07 06:16:35;;;;;;;12.35;5.40;;;0.80;99.90;;;;;;4990784;28;20030;-84
2021/12/07 06:19:01;;;;;;;16.13;6.22;;;0.80;99.90;;;;;;4986077;28;20065;-84
2021/12/07 06:21:28;;;;;;;15.10;6.22;;;0.80;99.90;;;;;;4993025;28;20056;-84
2021/12/07 06:23:54;;;;;;;17.15;5.40;;;0.90;99.90;;;;;;5003498;28;20061;-85
2021/12/07 06:26:20;;;;;;;12.10;5.32;;;0.90;99.90;;;;;;5009283;28;20046;-84
2021/12/07 06:28:46;;;;;;;11.50;5.15;;;0.90;99.90;;;;;;5009356;28;20069;-85
2021/12/07 06:31:11;;;;;;;11.32;4.63;;;1.00;99.90;;;;;;5008180;28;20042;-85
2021/12/07 06:33:37;;;;;;;12.75;4.78;;;1.10;99.90;;;;;;4988706;28;20038;-85
2021/12/07 06:36:05;;;;;;;13.60;5.45;;;1.10;99.90;;;;;;5010169;28;20034;-84
2021/12/07 06:38:32;;;;;;;9.82;4.13;;;1.10;99.90;;;;;;5005696;28;20056;-85
2021/12/07 06:40:59;;;;;;;13.23;4.22;;;1.20;99.90;;;;;;4989759;28;20034;-85
2021/12/07 06:43:25;;;;;;;11.57;4.50;;;1.20;99.90;;;;;;5002442;28;20057;-84
2021/12/07 06:45:52;;;;;;;10.73;4.82;;;1.20;99.90;;;;;;4999674;28;20033;-84
2021/12/07 06:48:18;;;;;;;11.45;4.07;;;1.20;99.90;;;;;;4990131;28;20090;-85
2021/12/07 06:50:44;;;;;;;13.40;5.57;;;1.20;99.90;;;;;;5004383;28;20052;-85
2021/12/07 06:53:09;;;;;;;12.57;5.20;;;1.20;99.90;;;;;;5007370;28;20026;-84
2021/12/07 06:55:35;;;;;;;14.98;4.75;;;1.20;99.90;;;;;;5006346;28;20125;-85
2021/12/07 06:58:01;;;;;;;11.10;5.07;;;1.20;99.90;;;;;;5005931;28;20058;-85
2021/12/07 07:00:27;;;;;;;13.85;4.93;;;1.20;99.90;;;;;;5014740;28;82579;-84
2021/12/07 07:02:53;;;;;;;13.02;4.53;;;1.20;99.90;;;;;;4981932;28;28158;-84
2021/12/07 07:05:18;;;;;;;11.13;4.90;;;1.30;99.90;;;;;;4972981;28;20451;-84
2021/12/07 07:07:44;;;;;;;13.10;5.32;;;1.30;99.90;;;;;;4982815;28;20039;-84
2021/12/07 07:10:14;;;;;;;14.50;5.63;;;1.30;99.90;;;;;;4970442;28;20038;-84
2021/12/07 07:12:41;;;;;;;16.10;5.80;;;1.30;99.90;;;;;;4987517;28;20030;-83
2021/12/07 07:15:08;;;;;;;17.10;5.72;;;1.40;99.90;;;;;;4991089;28;20044;-85
2021/12/07 07:17:33;;;;;;;12.77;5.18;;;1.40;99.90;;;;;;4988712;28;20712;-84
2021/12/07 07:19:59;;;;;;;13.13;6.13;;;1.40;99.90;;;;;;4987800;28;20045;-84
2021/12/07 07:22:25;;;;;;;17.05;5.47;;;1.40;99.90;;;;;;4974683;28;20069;-84
2021/12/07 07:24:51;;;;;;;12.85;4.63;;;1.40;99.90;;;;;;4976647;28;20488;-84
2021/12/07 07:27:16;;;;;;;12.98;3.97;;;1.40;99.90;;;;;;4985261;28;20066;-84
2021/12/07 07:29:42;;;;;;;16.17;5.43;;;1.40;99.90;;;;;;4973402;28;20453;-84
2021/12/07 07:32:08;;;;;;;12.05;4.15;;;1.30;99.90;;;;;;4985426;28;20033;-83
2021/12/07 07:34:34;;;;;;;16.75;4.50;;;1.30;99.90;;;;;;4990444;28;20137;-83
2021/12/07 07:36:59;;;;;;;13.65;4.18;;;1.30;99.90;;;;;;4985190;28;20125;-84
2021/12/07 07:39:25;;;;;;;12.40;4.22;;;1.30;99.90;;;;;;4985573;28;20438;-84
2021/12/07 07:41:51;;;;;;;16.23;4.93;;;1.30;99.90;;;;;;4969262;28;20520;-84
2021/12/07 07:44:16;;;;;;;10.27;3.30;;;1.20;99.90;;;;;;4990229;28;20042;-84
2021/12/07 07:46:42;;;;;;;13.57;4.20;;;1.20;99.90;;;;;;4989878;28;20046;-84
2021/12/07 07:49:08;;;;;;;13.63;4.03;;;1.20;99.90;;;;;;4986208;28;21541;-84
2021/12/07 07:51:34;;;;;;;12.93;4.55;;;1.20;99.90;;;;;;4972592;28;20050;-84
2021/12/07 07:54:00;;;;;;;13.05;4.72;;;1.10;99.90;;;;;;4982334;28;20602;-83
2021/12/07 07:56:27;;;;;;;13.02;3.90;;;1.10;99.90;;;;;;4985217;28;20042;-83
2021/12/07 07:58:54;;;;;;;11.68;3.63;;;1.10;99.90;;;;;;4981540;28;20120;-84
2021/12/07 08:01:20;;;;;;;12.27;3.55;;;1.10;99.90;;;;;;4965978;28;20041;-84
2021/12/07 08:03:46;;;;;;;8.88;3.40;;;1.10;99.90;;;;;;4970730;28;20055;-84
2021/12/07 08:06:11;;;;;;;15.40;3.92;;;1.10;99.90;;;;;;4983178;28;20050;-83
2021/12/07 08:08:37;;;;;;;14.20;4.10;;;1.10;99.90;;;;;;4982776;28;20043;-84
2021/12/07 08:11:03;;;;;;;15.18;3.85;;;1.20;99.90;;;;;;4986408;28;20033;-84
2021/12/07 08:13:30;;;;;;;17.42;4.70;;;1.20;99.90;;;;;;4986583;28;20042;-83
2021/12/07 08:15:56;;;;;;;15.15;4.72;;;1.20;99.90;;;;;;4984598;28;20411;-83
2021/12/07 08:18:22;;;;;;;14.35;3.90;;;1.20;99.90;;;;;;4984499;28;20046;-84
2021/12/07 08:20:48;;;;;;;13.10;3.53;;;1.30;99.90;;;;;;4971071;28;20088;-84
2021/12/07 08:23:14;;;;;;;11.23;3.33;;;1.20;99.90;;;;;;4984164;28;20499;-84
2021/12/07 08:25:43;;;;;;;14.13;4.53;;;1.20;99.90;;;;;;4960175;28;20050;-83
2021/12/07 08:28:14;;;;;;;17.23;3.75;;;1.20;99.90;;;;;;4986609;28;20048;-83
2021/12/07 08:30:41;;;;;;;13.48;4.30;;;1.30;99.90;;;;;;4969779;28;20293;-84
2021/12/07 08:33:08;;;;;;;12.38;4.00;;;1.30;99.90;;;;;;4987303;28;20109;-83
2021/12/07 08:35:34;;;;;;;9.50;3.00;;;1.30;99.90;;;;;;4980694;28;20042;-83
2021/12/07 08:38:00;;;;;;;5.20;2.60;;;1.30;99.90;;;;;;4984482;28;20395;-83
2021/12/07 08:40:29;;;;;;;11.55;4.00;;;1.30;99.90;;;;;;4983922;28;20022;-84
2021/12/07 08:42:55;;;;;;;13.38;3.90;;;1.30;99.90;;;;;;4969851;28;20038;-84
2021/12/07 08:45:22;;;;;;;12.07;3.40;;;1.30;99.90;;;;;;4961924;28;20064;-83
2021/12/07 08:47:48;;;;;;;16.27;3.95;;;1.30;99.90;;;;;;4984292;28;20507;-83
2021/12/07 08:50:17;;;;;;;12.00;3.88;;;1.40;99.90;;;;;;4969005;28;20140;-83
2021/12/07 08:52:45;;;;;;;12.05;4.53;;;1.40;99.90;;;;;;4965249;28;20161;-83
2021/12/07 09:00:30;;;;;;;14.82;3.97;;;1.50;99.90;;;;;;4983411;28;20055;-84
2021/12/07 09:02:56;;;;;;;17.85;3.95;;;1.60;99.90;;;;;;4985833;28;20416;-84
2021/12/07 09:05:23;;;;;;;11.93;3.47;;;1.60;99.90;;;;;;4988526;28;20030;-83
2021/12/07 09:07:50;;;;;;;11.57;3.15;;;1.70;99.90;;;;;;4988234;28;20057;-83
2021/12/07 09:10:16;;;;;;;11.32;3.63;;;1.80;99.90;;;;;;4988539;28;20046;-83
2021/12/07 09:12:41;;;;;;;9.73;3.33;;;1.80;99.90;;;;;;5004803;28;20042;-83
2021/12/07 09:15:08;;;;;;;11.20;3.40;;;1.90;99.90;;;;;;4956105;28;20038;-83
2021/12/07 09:17:33;;;;;;;12.13;3.42;;;2.00;99.90;;;;;;4992305;28;20390;-83
2021/12/07 09:19:59;;;;;;;13.85;3.75;;;2.00;99.90;;;;;;4989675;28;20048;-83
2021/12/07 09:22:26;;;;;;;16.85;4.45;;;2.00;99.90;;;;;;4986936;28;20085;-83
2021/12/07 09:24:52;;;;;;;13.55;4.68;;;2.00;99.90;;;;;;4974041;28;20042;-83
2021/12/07 09:27:18;;;;;;;16.08;3.97;;;2.00;99.90;;;;;;4970352;28;20037;-83
2021/12/07 09:29:44;;;;;;;16.98;4.30;;;2.00;99.90;;;;;;4974549;28;20050;-83
2021/12/07 09:32:09;;;;;;;10.15;4.03;;;2.10;99.90;;;;;;4987406;28;20755;-83
2021/12/07 09:34:35;;;;;;;10.73;3.40;;;2.10;99.90;;;;;;4989048;28;20042;-83
2021/12/07 09:37:01;;;;;;;11.00;3.25;;;2.20;99.90;;;;;;4966725;28;20427;-83
2021/12/07 09:39:27;;;;;;;12.45;3.90;;;2.20;99.90;;;;;;4988213;28;20410;-82
2021/12/07 09:41:52;;;;;;;9.77;3.33;;;2.30;99.90;;;;;;4985741;28;21256;-84
2021/12/07 09:44:18;;;;;;;11.85;3.25;;;2.30;99.90;;;;;;4993467;28;20065;-82
2021/12/07 09:46:44;;;;;;;6.53;2.83;;;2.40;99.90;;;;;;4987798;28;20573;-83
2021/12/07 09:49:11;;;;;;;11.75;2.72;;;2.50;99.90;;;;;;4972678;28;20042;-82
2021/12/07 09:51:37;;;;;;;9.50;2.75;;;2.50;99.90;;;;;;4985637;28;20475;-84
2021/12/07 09:54:04;;;;;;;12.80;3.30;;;2.60;99.90;;;;;;4984770;28;20045;-83
2021/12/07 09:56:30;;;;;;;16.17;3.10;;;2.70;99.90;;;;;;4987013;28;20046;-83
2021/12/07 09:58:57;;;;;;;23.13;4.45;;;2.70;99.90;;;;;;4991125;28;20052;-84
2021/12/07 10:01:25;;;;;;;6.30;2.80;;;2.80;99.90;;;;;;4972959;28;20057;-84
2021/12/07 10:03:52;;;;;;;8.48;2.80;;;2.80;99.90;;;;;;4989732;28;20480;-84
2021/12/07 10:06:18;;;;;;;9.52;3.33;;;2.90;99.90;;;;;;4986866;28;20061;-84
2021/12/07 10:08:44;;;;;;;8.93;3.60;;;2.90;99.90;;;;;;4971196;28;20034;-84
2021/12/07 10:11:11;;;;;;;8.23;2.83;;;3.00;99.90;;;;;;4968507;28;20097;-84
2021/12/07 10:13:42;;;;;;;10.82;3.20;;;3.00;99.90;;;;;;4969765;28;20038;-84
2021/12/07 10:16:10;;;;;;;11.30;3.13;;;3.10;99.90;;;;;;4987154;28;20492;-84
2021/12/07 10:18:37;;;;;;;9.00;2.85;;;3.20;99.90;;;;;;4983742;28;20035;-84
2021/12/07 10:21:13;;;;;;;7.78;3.20;;;3.30;99.90;;;;;;4989417;28;20034;-84
2021/12/07 10:23:58;;;;;;;12.13;3.00;;;3.40;99.90;;;;;;4986289;28;20109;-84
2021/12/07 10:26:36;;;;;;;11.20;4.50;;;3.50;99.90;;;;;;4967059;28;20050;-84
2021/12/07 10:29:17;;;;;;;10.02;3.10;;;3.60;99.90;;;;;;4968970;28;20043;-84
2021/12/07 10:31:56;;;;;;;11.75;3.60;;;3.70;99.90;;;;;;4984664;28;20387;-84
2021/12/07 10:34:29;;;;;;;9.18;3.20;;;3.90;99.90;;;;;;4971774;28;20042;-84
2021/12/07 10:37:11;;;;;;;7.55;3.20;;;4.10;99.90;;;;;;4988475;28;20046;-84
2021/12/07 10:39:50;;;;;;;12.68;3.88;;;4.50;99.90;;;;;;4973097;28;20049;-84
2021/12/07 10:42:21;;;;;;;8.88;3.58;;;5.00;99.90;;;;;;4970726;28;20038;-84
2021/12/07 10:44:47;;;;;;;9.73;3.65;;;5.50;99.90;;;;;;4984737;28;20503;-84
2021/12/07 10:47:18;;;;;;;8.95;2.65;;;5.70;99.90;;;;;;4984486;28;20061;-84
2021/12/07 10:49:50;;;;;;;10.10;2.35;;;6.00;99.90;;;;;;4973552;28;20034;-84
2021/12/07 10:52:36;;;;;;;8.52;2.40;;;6.20;99.90;;;;;;4989808;28;20477;-84
2021/12/07 10:55:13;;;;;;;8.63;2.45;;;6.60;99.90;;;;;;4989154;28;20035;-84
2021/12/07 10:57:50;;;;;;;7.72;2.35;;;7.00;99.90;;;;;;4989905;28;20400;-84
2021/12/07 11:00:44;;;;;;;11.50;2.33;;;7.20;99.90;;;;;;4984124;28;20101;-84
2021/12/07 11:03:18;;;;;;;7.97;1.98;;;7.40;99.90;;;;;;4982707;28;20061;-84
2021/12/07 11:05:51;;;;;;;8.13;1.73;;;7.50;99.90;;;;;;4988426;28;21118;-84
2021/12/07 11:08:18;;;;;;;8.38;2.05;;;7.60;99.90;;;;;;4971702;28;20053;-84
2021/12/07 11:10:48;;;;;;;8.50;2.00;;;7.80;99.90;;;;;;4971535;28;20042;-84
2021/12/07 11:13:25;;;;;;;9.07;1.90;;;7.90;99.90;;;;;;4988551;28;20042;-84
2021/12/07 11:16:01;;;;;;;8.50;2.20;;;8.00;99.90;;;;;;4969613;28;20101;-84
2021/12/07 11:18:40;;;;;;;6.65;2.05;;;7.90;99.90;;;;;;4998549;28;20796;-84
2021/12/07 11:21:17;;;;;;;10.60;2.47;;;7.90;99.90;;;;;;4968601;28;20513;-84
2021/12/07 11:23:49;;;;;;;9.13;1.98;;;7.90;99.90;;;;;;4985691;28;20046;-84
2021/12/07 11:31:39;;;;;;;6.03;2.20;;;8.00;99.90;;;;;;4985407;28;20079;-84
2021/12/07 11:34:12;;;;;;;5.75;1.33;;;8.10;99.90;;;;;;4996880;28;20062;-84
2021/12/07 11:37:04;;;;;;;6.63;1.80;;;8.10;99.90;;;;;;4981241;28;20066;-84
2021/12/07 11:39:38;;;;;;;9.88;1.88;;;8.20;99.90;;;;;;4971909;28;20050;-85
2021/12/07 11:42:06;;;;;;;8.27;2.03;;;8.40;99.90;;;;;;4987298;28;20090;-84
2021/12/07 11:44:35;;;;;;;9.88;1.67;;;8.50;99.90;;;;;;4984180;28;20336;-84
2021/12/07 11:47:02;;;;;;;9.43;1.83;;;8.50;99.90;;;;;;4986812;28;20046;-84
2021/12/07 11:49:31;;;;;;;10.40;2.63;;;8.60;99.90;;;;;;4986715;28;20054;-84
2021/12/07 11:52:00;;;;;;;8.73;1.90;;;8.70;99.90;;;;;;4968438;28;21149;-84
2021/12/07 11:54:41;;;;;;;7.97;2.13;;;8.70;99.90;;;;;;4985191;28;20190;-84
2021/12/07 11:57:10;;;;;;;8.73;1.92;;;8.80;99.90;;;;;;4977809;28;20050;-84
2021/12/07 11:59:36;;;;;;;5.72;1.80;;;8.90;99.90;;;;;;4987739;28;20496;-85
2021/12/07 12:02:02;;;;;;;6.47;1.63;;;9.10;99.90;;;;;;5003548;28;20046;-84
2021/12/07 12:04:28;;;;;;;6.93;1.65;;;9.30;99.90;;;;;;4992518;28;20050;-84
2021/12/07 12:06:59;;;;;;;9.02;2.05;;;9.40;99.90;;;;;;4989194;28;20048;-84
2021/12/07 12:09:26;;;;;;;10.43;2.00;;;9.30;99.90;;;;;;4974001;28;20050;-83
2021/12/07 12:12:20;;;;;;;10.70;2.72;;;9.10;99.90;;;;;;4985305;28;20120;-83
2021/12/07 12:14:51;;;;;;;6.80;1.98;;;9.10;99.90;;;;;;4960670;28;20038;-83
2021/12/07 12:17:43;;;;;;;7.35;2.08;;;8.80;99.90;;;;;;4970102;28;20037;-83
2021/12/07 12:20:18;;;;;;;8.15;2.00;;;8.80;99.90;;;;;;4989242;28;20136;-83
2021/12/07 12:23:10;;;;;;;6.40;1.75;;;8.80;99.90;;;;;;4983832;28;20044;-83
2021/12/07 12:25:36;;;;;;;9.15;2.10;;;8.80;99.90;;;;;;4966943;28;20038;-83
2021/12/07 12:28:02;;;;;;;11.65;2.10;;;8.70;99.90;;;;;;4989097;28;20060;-83
2021/12/07 12:30:34;;;;;;;6.85;1.73;;;8.70;99.90;;;;;;4987654;28;20494;-83
2021/12/07 12:33:03;;;;;;;5.20;1.65;;;8.70;99.90;;;;;;4986332;28;20240;-83
2021/12/07 12:35:34;;;;;;;7.95;1.80;;;8.60;99.90;;;;;;4969930;28;20041;-83
2021/12/07 12:38:00;;;;;;;7.00;1.92;;;8.70;99.90;;;;;;4990180;28;20411;-84
2021/12/07 12:40:33;;;;;;;5.90;2.40;;;8.70;99.90;;;;;;4987196;28;20053;-84
2021/12/07 12:43:01;;;;;;;6.82;1.98;;;8.70;99.90;;;;;;4971901;28;20034;-84
2021/12/07 12:45:35;;;;;;;8.43;2.63;;;8.50;99.90;;;;;;4973448;28;20045;-84
2021/12/07 12:48:11;;;;;;;7.82;2.53;;;8.30;99.90;;;;;;4990273;28;20121;-84
2021/12/07 12:50:49;;;;;;;7.53;2.63;;;8.10;99.90;;;;;;4987920;28;20034;-83
2021/12/07 12:53:30;;;;;;;9.27;3.17;;;8.10;99.90;;;;;;4966160;28;20052;-83
2021/12/07 12:56:02;;;;;;;12.90;2.83;;;8.10;99.90;;;;;;4988342;28;20041;-83
2021/12/07 12:58:27;;;;;;;9.25;3.20;;;8.00;99.90;;;;;;4970272;28;20529;-84
2021/12/07 13:01:08;;;;;;;6.75;3.00;;;8.00;99.90;;;;;;4985888;28;20121;-84
2021/12/07 13:03:44;;;;;;;7.70;3.10;;;7.90;99.90;;;;;;4991204;28;20127;-84
2021/12/07 13:06:32;;;;;;;8.27;4.15;;;7.70;99.90;;;;;;4968771;28;20053;-84
2021/12/07 13:09:31;;;;;;;10.13;4.13;;;7.40;99.90;;;;;;4970236;28;20042;-84
2021/12/07 13:12:08;;;;;;;11.55;4.40;;;7.20;99.90;;;;;;4969308;28;20086;-84
2021/12/07 13:14:49;;;;;;;11.98;4.28;;;7.00;99.90;;;;;;4988924;28;20024;-83
2021/12/07 13:17:23;;;;;;;11.73;4.88;;;6.90;99.90;;;;;;4976059;28;20092;-84
2021/12/07 13:20:08;;;;;;;17.58;5.18;;;6.70;99.90;;;;;;4970649;28;20189;-84
2021/12/07 13:22:51;;;;;;;19.08;5.60;;;6.60;99.90;;;;;;4985536;28;20050;-84
2021/12/07 13:25:26;;;;;;;14.70;6.13;;;6.40;99.90;;;;;;4987348;28;20104;-83
2021/12/07 13:28:10;;;;;;;11.95;6.50;;;6.30;99.90;;;;;;4971221;28;20052;-83
2021/12/07 13:30:59;;;;;;;19.27;6.28;;;6.20;99.90;;;;;;4987079;28;20048;-84
2021/12/07 13:33:37;;;;;;;11.40;5.70;;;6.20;99.90;;;;;;4980760;28;20124;-84
2021/12/07 13:36:28;;;;;;;16.02;6.22;;;6.00;99.90;;;;;;4986509;28;20042;-84
2021/12/07 13:38:57;;;;;;;15.40;6.40;;;6.00;99.90;;;;;;4989733;28;20052;-84
2021/12/07 13:41:23;;;;;;;16.23;6.13;;;5.90;99.90;;;;;;4984407;28;20132;-84
2021/12/07 13:43:50;;;;;;;16.10;6.60;;;5.80;99.90;;;;;;4978012;28;20122;-84
2021/12/07 13:46:20;;;;;;;14.43;6.57;;;5.80;99.90;;;;;;4979033;28;20644;-84
2021/12/07 13:48:48;;;;;;;16.10;6.93;;;5.70;99.90;;;;;;4972296;28;20376;-84
2021/12/07 13:51:17;;;;;;;15.23;7.40;;;5.70;99.90;;;;;;4989707;28;20168;-84
2021/12/07 13:53:44;;;;;;;18.58;6.55;;;5.70;99.90;;;;;;4973674;28;20113;-83
2021/12/07 13:56:11;;;;;;;13.70;6.20;;;5.70;99.90;;;;;;4992091;28;20491;-83
2021/12/07 13:58:51;;;;;;;14.93;5.85;;;5.70;99.90;;;;;;4991177;28;20041;-83
2021/12/07 14:01:17;;;;;;;20.65;7.10;;;5.60;99.90;;;;;;4988572;28;20049;-83
2021/12/07 14:03:44;;;;;;;22.35;6.30;;;5.60;99.90;;;;;;4984321;28;20058;-84
2021/12/07 14:06:09;;;;;;;23.45;7.55;;;5.50;99.90;;;;;;4988789;28;20056;-83
2021/12/07 14:08:35;;;;;;;20.55;6.82;;;5.50;99.90;;;;;;4983310;28;20047;-83
2021/12/07 14:11:01;;;;;;;17.00;7.50;;;5.50;99.90;;;;;;4969770;28;20409;-83
2021/12/07 14:13:26;;;;;;;16.85;6.20;;;5.40;99.90;;;;;;4991259;28;20173;-83
2021/12/07 14:15:52;;;;;;;14.65;7.10;;;5.40;99.90;;;;;;4962710;28;20125;-83
2021/12/07 14:18:23;;;;;;;16.08;6.72;;;5.40;99.90;;;;;;4984993;28;20113;-83
2021/12/07 14:20:49;;;;;;;16.83;6.95;;;5.30;99.90;;;;;;4967979;28;20049;-83
2021/12/07 14:23:14;;;;;;;20.67;6.97;;;5.30;99.90;;;;;;4989433;28;20399;-83
2021/12/07 14:26:06;;;;;;;23.52;7.28;;;5.30;99.90;;;;;;4993332;28;20052;-83
2021/12/07 14:28:45;;;;;;;13.57;6.00;;;5.20;99.90;;;;;;4992733;28;20038;-83
2021/12/07 14:31:32;;;;;;;15.48;5.88;;;5.10;99.90;;;;;;4992895;28;20056;-83
2021/12/07 14:34:00;;;;;;;15.25;5.95;;;5.10;99.90;;;;;;4989700;28;20067;-84
2021/12/07 14:36:31;;;;;;;12.23;5.68;;;5.10;99.90;;;;;;4973866;28;20414;-84